Погода Есперантинана неделю

Пиауи, Бразилия

16 - 22 июля
  • 16июля
    Сегодня
    +20°
    +32°
    Ясно и безоблачно
    ВремяПогодаТемператураВлажностьДавлениеВетер, м/сВероятность осадков
    00:00Ясно и безоблачно+26°C59 %757 мм3.0 м/с5 %
    03:00Ясно и безоблачно+23°C72 %756 мм2.0 м/с5 %
    06:00Ясно и безоблачно+22°C74 %757 мм2.3 м/с5 %
    09:00Ясно и безоблачно+27°C49 %759 мм5.8 м/с5 %
    12:00Ясно и безоблачно+30°C39 %757 мм5.2 м/с5 %
    15:00Ясно и безоблачно+31°C29 %756 мм3.8 м/с5 %
    18:00Ясно и безоблачно+27°C52 %756 мм2.1 м/с5 %
    21:00Ясно и безоблачно+25°C53 %758 мм3.4 м/с5 %
  • 17июля
    Среда
    +21°
    +34°
    Практически безоблачно
    ВремяПогодаТемператураВлажностьДавлениеВетер, м/сВероятность осадков
    00:00Ясно и безоблачно+24°C59 %758 мм2.8 м/с5 %
    03:00Ясно и безоблачно+21°C71 %756 мм1.9 м/с5 %
    06:00Ясно и безоблачно+21°C72 %757 мм2.0 м/с5 %
    09:00Ясно и безоблачно+28°C51 %758 мм4.3 м/с5 %
    12:00Ясно и безоблачно+31°C43 %757 мм4.1 м/с5 %
    15:00Практически безоблачно+33°C37 %755 мм2.9 м/с5 %
    18:00Небольшая облачность+32°C53 %755 мм0.5 м/с5 %
    21:00Облачно с прояснениями+28°C52 %757 мм3.0 м/с5 %
  • 18июля
    Четверг
    +22°
    +33°
    Облачно с прояснениями
    ВремяПогодаТемператураВлажностьДавлениеВетер, м/сВероятность осадков
    00:00Ясно и безоблачно+25°C82 %757 мм1.9 м/с5 %
    03:00Ясно и безоблачно+22°C93 %756 мм1.7 м/с4 %
    06:00Ясно и безоблачно+22°C96 %757 мм1.1 м/с4 %
    09:00Ясно и безоблачно+28°C60 %758 мм2.8 м/с5 %
    12:00Практически безоблачно+31°C46 %757 мм3.2 м/с4 %
    15:00Облачно с прояснениями+32°C39 %755 мм1.0 м/с5 %
    18:00Ясно и безоблачно+30°C58 %755 мм1.7 м/с5 %
    21:00Небольшая облачность+26°C67 %757 мм2.0 м/с5 %
  • 19июля
    Пятница
    +23°
    +34°
    Небольшая облачность
    ВремяПогодаТемператураВлажностьДавлениеВетер, м/сВероятность осадков
    00:00Ясно и безоблачно+25°C84 %757 мм1.3 м/с5 %
    03:00Ясно и безоблачно+23°C92 %756 мм1.3 м/с5 %
    06:00Ясно и безоблачно+24°C97 %756 мм1.0 м/с5 %
    09:00Ясно и безоблачно+28°C67 %758 мм0.8 м/с5 %
    12:00Ясно и безоблачно+31°C44 %757 мм2.4 м/с5 %
    15:00Небольшая облачность+34°C37 %755 мм1.7 м/с5 %
    18:00Облачно с прояснениями+31°C55 %755 мм2.1 м/с5 %
    21:00Ясно и безоблачно+28°C64 %757 мм3.6 м/с5 %
  • 20июля
    Суббота
    +22°
    +34°
    Практически безоблачно
    ВремяПогодаТемператураВлажностьДавлениеВетер, м/сВероятность осадков
    00:00Небольшая облачность+25°C86 %757 мм2.0 м/с7 %
    03:00Облачно с прояснениями+24°C91 %756 мм1.5 м/с15 %
    06:00Ясно и безоблачно+24°C94 %757 мм1.7 м/с22 %
    09:00Ясно и безоблачно+29°C52 %758 мм4.5 м/с7 %
    12:00Практически безоблачно+32°C44 %756 мм4.0 м/с4 %
    15:00Практически безоблачно+33°C37 %754 мм2.7 м/с3 %
    18:00Практически безоблачно+32°C51 %755 мм0.3 м/с5 %
    21:00Облачно с прояснениями+28°C59 %756 мм2.6 м/с5 %
Мы используем cookies
Соглашаюсь